sensor_id;sensor_type;location;lat;lon;timestamp;P1;durP1;ratioP1;P2;durP2;ratioP2
33760;SDS011;20084;47.912;19.044;2022-10-16T00:00:56;13.18;;;7.53;;
33760;SDS011;20084;47.912;19.044;2022-10-16T00:03:22;12.48;;;7.47;;
33760;SDS011;20084;47.912;19.044;2022-10-16T00:05:48;11.00;;;7.45;;
33760;SDS011;20084;47.912;19.044;2022-10-16T00:08:13;10.40;;;7.93;;
33760;SDS011;20084;47.912;19.044;2022-10-16T00:10:39;9.30;;;7.20;;
33760;SDS011;20084;47.912;19.044;2022-10-16T00:13:06;14.20;;;8.27;;
33760;SDS011;20084;47.912;19.044;2022-10-16T00:15:35;9.32;;;7.95;;
33760;SDS011;20084;47.912;19.044;2022-10-16T00:18:02;10.15;;;9.10;;
33760;SDS011;20084;47.912;19.044;2022-10-16T00:20:29;12.95;;;11.30;;
33760;SDS011;20084;47.912;19.044;2022-10-16T00:22:56;14.82;;;11.05;;
33760;SDS011;20084;47.912;19.044;2022-10-16T00:25:22;11.60;;;10.43;;
33760;SDS011;20084;47.912;19.044;2022-10-16T00:27:48;11.98;;;9.18;;
33760;SDS011;20084;47.912;19.044;2022-10-16T00:30:13;13.10;;;9.23;;
33760;SDS011;20084;47.912;19.044;2022-10-16T00:32:39;13.88;;;8.60;;
33760;SDS011;20084;47.912;19.044;2022-10-16T00:35:04;14.48;;;9.30;;
33760;SDS011;20084;47.912;19.044;2022-10-16T00:37:30;15.45;;;9.52;;
33760;SDS011;20084;47.912;19.044;2022-10-16T00:39:56;10.70;;;9.52;;
33760;SDS011;20084;47.912;19.044;2022-10-16T00:42:22;10.88;;;8.88;;
33760;SDS011;20084;47.912;19.044;2022-10-16T00:47:29;10.30;;;8.57;;
33760;SDS011;20084;47.912;19.044;2022-10-16T00:50:00;11.98;;;8.65;;
33760;SDS011;20084;47.912;19.044;2022-10-16T00:52:36;13.27;;;8.10;;
33760;SDS011;20084;47.912;19.044;2022-10-16T00:55:04;11.93;;;8.07;;
33760;SDS011;20084;47.912;19.044;2022-10-16T00:57:31;7.82;;;6.80;;
33760;SDS011;20084;47.912;19.044;2022-10-16T00:59:57;10.20;;;6.47;;
33760;SDS011;20084;47.912;19.044;2022-10-16T01:02:23;8.68;;;6.63;;
33760;SDS011;20084;47.912;19.044;2022-10-16T01:04:50;9.30;;;6.57;;
33760;SDS011;20084;47.912;19.044;2022-10-16T01:13:44;8.90;;;6.13;;
33760;SDS011;20084;47.912;19.044;2022-10-16T01:15:51;9.55;;;5.82;;
33760;SDS011;20084;47.912;19.044;2022-10-16T01:18:45;6.05;;;5.30;;
33760;SDS011;20084;47.912;19.044;2022-10-16T01:21:18;6.93;;;5.35;;
33760;SDS011;20084;47.912;19.044;2022-10-16T01:32:10;9.85;;;5.57;;
33760;SDS011;20084;47.912;19.044;2022-10-16T01:34:50;6.47;;;5.20;;
33760;SDS011;20084;47.912;19.044;2022-10-16T01:37:30;8.40;;;5.70;;
33760;SDS011;20084;47.912;19.044;2022-10-16T01:40:05;7.63;;;6.18;;
33760;SDS011;20084;47.912;19.044;2022-10-16T01:42:55;7.90;;;5.38;;
33760;SDS011;20084;47.912;19.044;2022-10-16T01:45:33;5.88;;;4.85;;
33760;SDS011;20084;47.912;19.044;2022-10-16T01:48:00;6.45;;;5.38;;
33760;SDS011;20084;47.912;19.044;2022-10-16T01:50:30;12.30;;;5.63;;
33760;SDS011;20084;47.912;19.044;2022-10-16T01:53:00;11.10;;;5.05;;
33760;SDS011;20084;47.912;19.044;2022-10-16T01:55:29;7.50;;;4.85;;
33760;SDS011;20084;47.912;19.044;2022-10-16T01:57:58;8.55;;;4.82;;
33760;SDS011;20084;47.912;19.044;2022-10-16T02:00:26;7.03;;;4.93;;
33760;SDS011;20084;47.912;19.044;2022-10-16T02:02:54;7.30;;;5.05;;
33760;SDS011;20084;47.912;19.044;2022-10-16T02:05:41;7.18;;;5.35;;
33760;SDS011;20084;47.912;19.044;2022-10-16T02:08:15;8.77;;;5.18;;
33760;SDS011;20084;47.912;19.044;2022-10-16T02:10:41;6.68;;;5.07;;
33760;SDS011;20084;47.912;19.044;2022-10-16T02:13:11;7.32;;;4.93;;
33760;SDS011;20084;47.912;19.044;2022-10-16T02:15:40;7.57;;;5.60;;
33760;SDS011;20084;47.912;19.044;2022-10-16T02:18:06;6.60;;;5.03;;
33760;SDS011;20084;47.912;19.044;2022-10-16T02:20:40;6.72;;;5.60;;
33760;SDS011;20084;47.912;19.044;2022-10-16T02:23:14;7.00;;;4.93;;
33760;SDS011;20084;47.912;19.044;2022-10-16T02:25:49;7.00;;;4.95;;
33760;SDS011;20084;47.912;19.044;2022-10-16T02:28:31;5.60;;;5.05;;
33760;SDS011;20084;47.912;19.044;2022-10-16T02:31:04;12.90;;;6.72;;
33760;SDS011;20084;47.912;19.044;2022-10-16T02:33:33;6.43;;;4.82;;
33760;SDS011;20084;47.912;19.044;2022-10-16T02:36:00;11.25;;;5.18;;
33760;SDS011;20084;47.912;19.044;2022-10-16T02:38:26;6.90;;;4.82;;
33760;SDS011;20084;47.912;19.044;2022-10-16T02:40:52;11.15;;;5.22;;
33760;SDS011;20084;47.912;19.044;2022-10-16T02:43:19;8.30;;;5.53;;
33760;SDS011;20084;47.912;19.044;2022-10-16T02:45:45;7.78;;;5.65;;
33760;SDS011;20084;47.912;19.044;2022-10-16T02:48:10;7.97;;;5.07;;
33760;SDS011;20084;47.912;19.044;2022-10-16T02:50:36;7.70;;;5.50;;
33760;SDS011;20084;47.912;19.044;2022-10-16T02:53:01;7.97;;;5.20;;
33760;SDS011;20084;47.912;19.044;2022-10-16T02:55:27;6.43;;;5.40;;
33760;SDS011;20084;47.912;19.044;2022-10-16T02:57:53;7.68;;;5.63;;
33760;SDS011;20084;47.912;19.044;2022-10-16T03:00:19;7.13;;;5.00;;
33760;SDS011;20084;47.912;19.044;2022-10-16T03:02:45;11.82;;;5.63;;
33760;SDS011;20084;47.912;19.044;2022-10-16T03:05:11;7.28;;;5.38;;
33760;SDS011;20084;47.912;19.044;2022-10-16T03:07:37;10.80;;;5.78;;
33760;SDS011;20084;47.912;19.044;2022-10-16T03:10:03;7.15;;;5.53;;
33760;SDS011;20084;47.912;19.044;2022-10-16T03:12:29;8.23;;;5.72;;
33760;SDS011;20084;47.912;19.044;2022-10-16T03:14:55;6.70;;;5.13;;
33760;SDS011;20084;47.912;19.044;2022-10-16T03:17:22;6.78;;;5.30;;
33760;SDS011;20084;47.912;19.044;2022-10-16T03:19:48;6.00;;;5.35;;
33760;SDS011;20084;47.912;19.044;2022-10-16T03:22:13;9.02;;;5.68;;
33760;SDS011;20084;47.912;19.044;2022-10-16T03:24:39;9.85;;;6.10;;
33760;SDS011;20084;47.912;19.044;2022-10-16T03:27:05;7.18;;;5.70;;
33760;SDS011;20084;47.912;19.044;2022-10-16T03:29:31;9.40;;;5.60;;
33760;SDS011;20084;47.912;19.044;2022-10-16T03:31:58;6.13;;;5.53;;
33760;SDS011;20084;47.912;19.044;2022-10-16T03:34:24;9.27;;;5.57;;
33760;SDS011;20084;47.912;19.044;2022-10-16T03:36:50;10.20;;;5.53;;
33760;SDS011;20084;47.912;19.044;2022-10-16T03:39:16;5.60;;;5.10;;
33760;SDS011;20084;47.912;19.044;2022-10-16T03:41:42;8.15;;;5.55;;
33760;SDS011;20084;47.912;19.044;2022-10-16T03:44:07;10.60;;;5.40;;
33760;SDS011;20084;47.912;19.044;2022-10-16T03:46:33;6.93;;;4.72;;
33760;SDS011;20084;47.912;19.044;2022-10-16T03:48:58;7.72;;;4.60;;
33760;SDS011;20084;47.912;19.044;2022-10-16T03:51:24;9.30;;;5.25;;
33760;SDS011;20084;47.912;19.044;2022-10-16T03:53:50;7.50;;;5.85;;
33760;SDS011;20084;47.912;19.044;2022-10-16T03:56:15;6.38;;;5.75;;
33760;SDS011;20084;47.912;19.044;2022-10-16T03:58:41;9.52;;;5.53;;
33760;SDS011;20084;47.912;19.044;2022-10-16T04:01:07;7.55;;;5.93;;
33760;SDS011;20084;47.912;19.044;2022-10-16T04:03:32;7.28;;;5.90;;
33760;SDS011;20084;47.912;19.044;2022-10-16T04:05:58;9.70;;;6.10;;
33760;SDS011;20084;47.912;19.044;2022-10-16T04:08:23;8.00;;;5.18;;
33760;SDS011;20084;47.912;19.044;2022-10-16T04:10:49;5.82;;;5.22;;
33760;SDS011;20084;47.912;19.044;2022-10-16T04:13:15;7.75;;;5.55;;
33760;SDS011;20084;47.912;19.044;2022-10-16T04:15:40;6.63;;;5.45;;
33760;SDS011;20084;47.912;19.044;2022-10-16T04:18:06;6.55;;;4.93;;
33760;SDS011;20084;47.912;19.044;2022-10-16T04:20:32;15.85;;;10.82;;
33760;SDS011;20084;47.912;19.044;2022-10-16T04:22:57;13.73;;;11.93;;
33760;SDS011;20084;47.912;19.044;2022-10-16T04:25:23;14.05;;;10.88;;
33760;SDS011;20084;47.912;19.044;2022-10-16T04:27:48;22.17;;;18.45;;
33760;SDS011;20084;47.912;19.044;2022-10-16T04:30:14;13.15;;;10.77;;
33760;SDS011;20084;47.912;19.044;2022-10-16T04:32:40;7.65;;;5.65;;
33760;SDS011;20084;47.912;19.044;2022-10-16T04:35:06;7.43;;;4.32;;
33760;SDS011;20084;47.912;19.044;2022-10-16T04:37:32;8.05;;;4.78;;
33760;SDS011;20084;47.912;19.044;2022-10-16T04:39:57;6.63;;;4.50;;
33760;SDS011;20084;47.912;19.044;2022-10-16T04:42:23;8.00;;;4.20;;
33760;SDS011;20084;47.912;19.044;2022-10-16T04:44:49;6.60;;;4.75;;
33760;SDS011;20084;47.912;19.044;2022-10-16T04:47:14;6.35;;;4.55;;
33760;SDS011;20084;47.912;19.044;2022-10-16T04:49:40;6.88;;;4.85;;
33760;SDS011;20084;47.912;19.044;2022-10-16T04:52:06;5.90;;;5.18;;
33760;SDS011;20084;47.912;19.044;2022-10-16T04:54:31;7.22;;;5.18;;
33760;SDS011;20084;47.912;19.044;2022-10-16T04:56:57;5.82;;;5.18;;
33760;SDS011;20084;47.912;19.044;2022-10-16T04:59:23;6.57;;;5.07;;
33760;SDS011;20084;47.912;19.044;2022-10-16T05:01:48;7.05;;;5.15;;
33760;SDS011;20084;47.912;19.044;2022-10-16T05:04:14;7.32;;;5.07;;
33760;SDS011;20084;47.912;19.044;2022-10-16T05:06:40;6.95;;;5.10;;
33760;SDS011;20084;47.912;19.044;2022-10-16T05:09:06;7.55;;;5.32;;
33760;SDS011;20084;47.912;19.044;2022-10-16T05:11:33;8.63;;;5.18;;
33760;SDS011;20084;47.912;19.044;2022-10-16T05:13:59;9.25;;;4.80;;
33760;SDS011;20084;47.912;19.044;2022-10-16T05:16:25;6.70;;;5.22;;
33760;SDS011;20084;47.912;19.044;2022-10-16T05:18:51;7.32;;;4.40;;
33760;SDS011;20084;47.912;19.044;2022-10-16T05:21:17;9.63;;;5.57;;
33760;SDS011;20084;47.912;19.044;2022-10-16T05:23:43;6.65;;;5.07;;
33760;SDS011;20084;47.912;19.044;2022-10-16T05:26:08;7.30;;;5.38;;
33760;SDS011;20084;47.912;19.044;2022-10-16T05:28:34;6.78;;;4.72;;
33760;SDS011;20084;47.912;19.044;2022-10-16T05:31:03;6.50;;;5.13;;
33760;SDS011;20084;47.912;19.044;2022-10-16T05:33:33;6.93;;;4.85;;
33760;SDS011;20084;47.912;19.044;2022-10-16T05:36:06;6.43;;;5.35;;
33760;SDS011;20084;47.912;19.044;2022-10-16T05:38:34;6.93;;;6.22;;
33760;SDS011;20084;47.912;19.044;2022-10-16T05:41:00;7.45;;;5.82;;
33760;SDS011;20084;47.912;19.044;2022-10-16T05:43:27;11.02;;;6.07;;
33760;SDS011;20084;47.912;19.044;2022-10-16T05:46:00;7.55;;;5.22;;
33760;SDS011;20084;47.912;19.044;2022-10-16T05:48:30;7.32;;;5.28;;
33760;SDS011;20084;47.912;19.044;2022-10-16T05:51:03;8.32;;;5.80;;
33760;SDS011;20084;47.912;19.044;2022-10-16T05:53:32;7.03;;;5.35;;
33760;SDS011;20084;47.912;19.044;2022-10-16T05:55:59;7.05;;;5.00;;
33760;SDS011;20084;47.912;19.044;2022-10-16T05:58:25;7.00;;;5.70;;
33760;SDS011;20084;47.912;19.044;2022-10-16T06:00:55;6.85;;;5.03;;
33760;SDS011;20084;47.912;19.044;2022-10-16T06:03:25;6.72;;;5.82;;
33760;SDS011;20084;47.912;19.044;2022-10-16T06:05:50;6.13;;;4.80;;
33760;SDS011;20084;47.912;19.044;2022-10-16T06:08:17;7.82;;;4.15;;
33760;SDS011;20084;47.912;19.044;2022-10-16T06:10:43;8.60;;;5.50;;
33760;SDS011;20084;47.912;19.044;2022-10-16T06:13:10;10.45;;;6.35;;
33760;SDS011;20084;47.912;19.044;2022-10-16T06:15:36;6.50;;;5.75;;
33760;SDS011;20084;47.912;19.044;2022-10-16T06:18:03;8.57;;;6.00;;
33760;SDS011;20084;47.912;19.044;2022-10-16T06:20:30;7.28;;;4.90;;
33760;SDS011;20084;47.912;19.044;2022-10-16T06:22:55;7.25;;;5.07;;
33760;SDS011;20084;47.912;19.044;2022-10-16T06:25:22;8.52;;;5.35;;
33760;SDS011;20084;47.912;19.044;2022-10-16T06:27:47;6.45;;;5.43;;
33760;SDS011;20084;47.912;19.044;2022-10-16T06:30:13;8.50;;;4.93;;
33760;SDS011;20084;47.912;19.044;2022-10-16T06:32:38;9.68;;;4.93;;
33760;SDS011;20084;47.912;19.044;2022-10-16T06:35:04;8.23;;;5.75;;
33760;SDS011;20084;47.912;19.044;2022-10-16T06:37:30;5.75;;;4.78;;
33760;SDS011;20084;47.912;19.044;2022-10-16T06:39:55;8.13;;;5.18;;
33760;SDS011;20084;47.912;19.044;2022-10-16T06:42:21;5.50;;;4.75;;
33760;SDS011;20084;47.912;19.044;2022-10-16T06:44:46;5.70;;;4.18;;
33760;SDS011;20084;47.912;19.044;2022-10-16T06:47:12;6.18;;;4.40;;
33760;SDS011;20084;47.912;19.044;2022-10-16T06:49:37;6.07;;;4.13;;
33760;SDS011;20084;47.912;19.044;2022-10-16T06:52:03;6.85;;;4.20;;
33760;SDS011;20084;47.912;19.044;2022-10-16T06:54:29;7.70;;;4.22;;
33760;SDS011;20084;47.912;19.044;2022-10-16T06:56:55;8.15;;;4.80;;
33760;SDS011;20084;47.912;19.044;2022-10-16T06:59:21;9.05;;;4.72;;
33760;SDS011;20084;47.912;19.044;2022-10-16T07:01:47;7.63;;;4.22;;
33760;SDS011;20084;47.912;19.044;2022-10-16T07:04:13;5.22;;;4.38;;
33760;SDS011;20084;47.912;19.044;2022-10-16T07:06:38;9.02;;;4.38;;
33760;SDS011;20084;47.912;19.044;2022-10-16T07:09:06;6.40;;;4.60;;
33760;SDS011;20084;47.912;19.044;2022-10-16T07:11:34;7.78;;;5.07;;
33760;SDS011;20084;47.912;19.044;2022-10-16T07:14:02;7.90;;;4.68;;
33760;SDS011;20084;47.912;19.044;2022-10-16T07:16:29;6.63;;;4.43;;
33760;SDS011;20084;47.912;19.044;2022-10-16T07:18:56;6.65;;;5.10;;
33760;SDS011;20084;47.912;19.044;2022-10-16T07:21:24;7.38;;;4.65;;
33760;SDS011;20084;47.912;19.044;2022-10-16T07:23:51;8.82;;;4.82;;
33760;SDS011;20084;47.912;19.044;2022-10-16T07:26:24;5.60;;;4.68;;
33760;SDS011;20084;47.912;19.044;2022-10-16T07:28:51;7.10;;;4.88;;
33760;SDS011;20084;47.912;19.044;2022-10-16T07:31:18;7.28;;;4.65;;
33760;SDS011;20084;47.912;19.044;2022-10-16T07:33:45;6.38;;;5.25;;
33760;SDS011;20084;47.912;19.044;2022-10-16T07:36:13;4.57;;;4.03;;
33760;SDS011;20084;47.912;19.044;2022-10-16T07:38:39;7.65;;;4.80;;
33760;SDS011;20084;47.912;19.044;2022-10-16T07:41:07;5.97;;;4.38;;
33760;SDS011;20084;47.912;19.044;2022-10-16T07:43:36;9.68;;;5.50;;
33760;SDS011;20084;47.912;19.044;2022-10-16T07:46:01;6.50;;;4.82;;
33760;SDS011;20084;47.912;19.044;2022-10-16T07:48:28;8.52;;;5.47;;
33760;SDS011;20084;47.912;19.044;2022-10-16T07:50:59;6.68;;;4.85;;
33760;SDS011;20084;47.912;19.044;2022-10-16T07:53:26;11.60;;;7.55;;
33760;SDS011;20084;47.912;19.044;2022-10-16T07:55:52;9.15;;;5.75;;
33760;SDS011;20084;47.912;19.044;2022-10-16T07:58:22;6.28;;;4.25;;
33760;SDS011;20084;47.912;19.044;2022-10-16T08:00:48;5.78;;;4.80;;
33760;SDS011;20084;47.912;19.044;2022-10-16T08:03:13;6.97;;;4.30;;
33760;SDS011;20084;47.912;19.044;2022-10-16T08:05:39;7.25;;;4.85;;
33760;SDS011;20084;47.912;19.044;2022-10-16T08:08:04;8.35;;;4.63;;
33760;SDS011;20084;47.912;19.044;2022-10-16T08:10:30;10.52;;;4.47;;
33760;SDS011;20084;47.912;19.044;2022-10-16T08:12:56;7.15;;;4.80;;
33760;SDS011;20084;47.912;19.044;2022-10-16T08:15:22;9.55;;;4.82;;
33760;SDS011;20084;47.912;19.044;2022-10-16T08:17:55;6.00;;;4.18;;
33760;SDS011;20084;47.912;19.044;2022-10-16T08:20:25;7.43;;;4.35;;
33760;SDS011;20084;47.912;19.044;2022-10-16T08:22:51;6.72;;;4.68;;
33760;SDS011;20084;47.912;19.044;2022-10-16T08:25:17;8.10;;;4.60;;
33760;SDS011;20084;47.912;19.044;2022-10-16T08:27:43;7.13;;;4.90;;
33760;SDS011;20084;47.912;19.044;2022-10-16T08:30:09;6.55;;;3.90;;
33760;SDS011;20084;47.912;19.044;2022-10-16T08:32:35;7.03;;;4.80;;
33760;SDS011;20084;47.912;19.044;2022-10-16T08:35:01;5.72;;;5.13;;
33760;SDS011;20084;47.912;19.044;2022-10-16T08:37:30;6.28;;;4.40;;
33760;SDS011;20084;47.912;19.044;2022-10-16T08:39:56;7.03;;;4.75;;
33760;SDS011;20084;47.912;19.044;2022-10-16T08:42:31;8.57;;;5.05;;
33760;SDS011;20084;47.912;19.044;2022-10-16T08:50:32;6.28;;;4.70;;
33760;SDS011;20084;47.912;19.044;2022-10-16T08:53:03;9.02;;;4.88;;
33760;SDS011;20084;47.912;19.044;2022-10-16T08:55:33;5.43;;;4.43;;
33760;SDS011;20084;47.912;19.044;2022-10-16T08:58:15;5.78;;;4.22;;
33760;SDS011;20084;47.912;19.044;2022-10-16T09:00:52;8.30;;;4.47;;
33760;SDS011;20084;47.912;19.044;2022-10-16T09:11:41;8.98;;;4.38;;
33760;SDS011;20084;47.912;19.044;2022-10-16T09:14:31;7.85;;;4.50;;
33760;SDS011;20084;47.912;19.044;2022-10-16T09:22:53;10.82;;;4.45;;
33760;SDS011;20084;47.912;19.044;2022-10-16T09:28:10;9.27;;;4.95;;
33760;SDS011;20084;47.912;19.044;2022-10-16T09:30:36;12.27;;;5.03;;
33760;SDS011;20084;47.912;19.044;2022-10-16T09:33:03;7.63;;;5.00;;
33760;SDS011;20084;47.912;19.044;2022-10-16T09:35:35;7.57;;;4.38;;
33760;SDS011;20084;47.912;19.044;2022-10-16T09:38:30;10.38;;;5.35;;
33760;SDS011;20084;47.912;19.044;2022-10-16T09:40:58;10.82;;;5.60;;
33760;SDS011;20084;47.912;19.044;2022-10-16T09:43:57;5.68;;;4.45;;
33760;SDS011;20084;47.912;19.044;2022-10-16T09:46:35;5.65;;;4.55;;
33760;SDS011;20084;47.912;19.044;2022-10-16T09:49:04;5.60;;;4.40;;
33760;SDS011;20084;47.912;19.044;2022-10-16T09:51:43;6.32;;;4.25;;
33760;SDS011;20084;47.912;19.044;2022-10-16T09:54:14;5.63;;;4.40;;
33760;SDS011;20084;47.912;19.044;2022-10-16T09:56:44;6.65;;;3.70;;
33760;SDS011;20084;47.912;19.044;2022-10-16T09:59:15;6.78;;;4.13;;
33760;SDS011;20084;47.912;19.044;2022-10-16T10:01:44;8.87;;;4.50;;
33760;SDS011;20084;47.912;19.044;2022-10-16T10:04:18;6.43;;;4.07;;
33760;SDS011;20084;47.912;19.044;2022-10-16T10:06:52;5.63;;;4.15;;
33760;SDS011;20084;47.912;19.044;2022-10-16T10:09:20;6.07;;;4.40;;
33760;SDS011;20084;47.912;19.044;2022-10-16T10:11:49;4.47;;;4.00;;
33760;SDS011;20084;47.912;19.044;2022-10-16T10:16:53;7.57;;;4.45;;
33760;SDS011;20084;47.912;19.044;2022-10-16T10:19:39;4.70;;;4.13;;
33760;SDS011;20084;47.912;19.044;2022-10-16T10:30:27;6.43;;;4.15;;
33760;SDS011;20084;47.912;19.044;2022-10-16T10:38:59;7.65;;;5.10;;
33760;SDS011;20084;47.912;19.044;2022-10-16T10:52:43;5.90;;;4.25;;
33760;SDS011;20084;47.912;19.044;2022-10-16T11:04:37;8.45;;;3.78;;
33760;SDS011;20084;47.912;19.044;2022-10-16T11:09:17;4.63;;;3.65;;
33760;SDS011;20084;47.912;19.044;2022-10-16T11:11:51;6.55;;;4.20;;
33760;SDS011;20084;47.912;19.044;2022-10-16T11:14:34;7.60;;;3.85;;
33760;SDS011;20084;47.912;19.044;2022-10-16T11:17:42;5.13;;;3.90;;
33760;SDS011;20084;47.912;19.044;2022-10-16T11:20:23;5.40;;;3.47;;
33760;SDS011;20084;47.912;19.044;2022-10-16T11:22:59;6.78;;;3.25;;
33760;SDS011;20084;47.912;19.044;2022-10-16T11:25:39;5.18;;;2.72;;
33760;SDS011;20084;47.912;19.044;2022-10-16T11:30:47;5.32;;;3.70;;
33760;SDS011;20084;47.912;19.044;2022-10-16T11:36:10;5.20;;;3.45;;
33760;SDS011;20084;47.912;19.044;2022-10-16T11:46:58;5.22;;;3.90;;
33760;SDS011;20084;47.912;19.044;2022-10-16T11:49:40;6.97;;;3.65;;
33760;SDS011;20084;47.912;19.044;2022-10-16T11:55:06;8.23;;;4.38;;
33760;SDS011;20084;47.912;19.044;2022-10-16T12:08:59;5.72;;;3.83;;
33760;SDS011;20084;47.912;19.044;2022-10-16T12:13:51;5.85;;;3.80;;
33760;SDS011;20084;47.912;19.044;2022-10-16T12:18:43;4.50;;;3.78;;
33760;SDS011;20084;47.912;19.044;2022-10-16T12:21:10;4.85;;;3.75;;
33760;SDS011;20084;47.912;19.044;2022-10-16T12:23:47;4.40;;;3.92;;
33760;SDS011;20084;47.912;19.044;2022-10-16T12:26:27;5.70;;;3.40;;
33760;SDS011;20084;47.912;19.044;2022-10-16T12:28:56;9.05;;;3.67;;
33760;SDS011;20084;47.912;19.044;2022-10-16T12:31:38;5.27;;;3.70;;
33760;SDS011;20084;47.912;19.044;2022-10-16T12:34:29;9.00;;;4.30;;
33760;SDS011;20084;47.912;19.044;2022-10-16T12:37:06;6.72;;;4.10;;
33760;SDS011;20084;47.912;19.044;2022-10-16T12:39:35;5.43;;;3.80;;
33760;SDS011;20084;47.912;19.044;2022-10-16T12:42:05;5.30;;;3.65;;
33760;SDS011;20084;47.912;19.044;2022-10-16T12:44:48;7.28;;;3.53;;
33760;SDS011;20084;47.912;19.044;2022-10-16T12:47:24;7.63;;;3.92;;
33760;SDS011;20084;47.912;19.044;2022-10-16T12:50:02;6.57;;;3.78;;
33760;SDS011;20084;47.912;19.044;2022-10-16T12:54:57;6.00;;;3.70;;
33760;SDS011;20084;47.912;19.044;2022-10-16T13:02:57;6.65;;;4.15;;
33760;SDS011;20084;47.912;19.044;2022-10-16T13:16:46;7.15;;;4.57;;
33760;SDS011;20084;47.912;19.044;2022-10-16T13:19:29;5.35;;;3.97;;
33760;SDS011;20084;47.912;19.044;2022-10-16T13:30:18;7.10;;;4.03;;
33760;SDS011;20084;47.912;19.044;2022-10-16T13:32:47;9.23;;;4.60;;
33760;SDS011;20084;47.912;19.044;2022-10-16T13:35:22;4.88;;;3.40;;
33760;SDS011;20084;47.912;19.044;2022-10-16T13:37:49;7.97;;;4.43;;
33760;SDS011;20084;47.912;19.044;2022-10-16T13:40:22;14.88;;;9.40;;
33760;SDS011;20084;47.912;19.044;2022-10-16T13:42:49;8.45;;;4.93;;
33760;SDS011;20084;47.912;19.044;2022-10-16T13:45:22;7.00;;;4.43;;
33760;SDS011;20084;47.912;19.044;2022-10-16T13:48:05;5.72;;;3.55;;
33760;SDS011;20084;47.912;19.044;2022-10-16T13:50:34;5.78;;;4.07;;
33760;SDS011;20084;47.912;19.044;2022-10-16T13:53:06;6.47;;;4.32;;
33760;SDS011;20084;47.912;19.044;2022-10-16T13:55:37;15.38;;;4.07;;
33760;SDS011;20084;47.912;19.044;2022-10-16T13:58:13;5.70;;;3.60;;
33760;SDS011;20084;47.912;19.044;2022-10-16T14:00:39;4.82;;;3.60;;
33760;SDS011;20084;47.912;19.044;2022-10-16T14:03:18;9.57;;;4.13;;
33760;SDS011;20084;47.912;19.044;2022-10-16T14:05:55;6.60;;;3.38;;
33760;SDS011;20084;47.912;19.044;2022-10-16T14:08:23;4.93;;;3.60;;
33760;SDS011;20084;47.912;19.044;2022-10-16T14:10:51;5.90;;;3.85;;
33760;SDS011;20084;47.912;19.044;2022-10-16T14:13:20;6.95;;;4.35;;
33760;SDS011;20084;47.912;19.044;2022-10-16T14:15:54;6.35;;;4.18;;
33760;SDS011;20084;47.912;19.044;2022-10-16T14:18:22;5.78;;;4.50;;
33760;SDS011;20084;47.912;19.044;2022-10-16T14:20:50;7.35;;;4.30;;
33760;SDS011;20084;47.912;19.044;2022-10-16T14:25:52;6.45;;;4.07;;
33760;SDS011;20084;47.912;19.044;2022-10-16T14:28:19;4.20;;;3.60;;
33760;SDS011;20084;47.912;19.044;2022-10-16T14:33:20;7.40;;;3.45;;
33760;SDS011;20084;47.912;19.044;2022-10-16T14:38:27;7.32;;;4.10;;
33760;SDS011;20084;47.912;19.044;2022-10-16T14:40:54;7.22;;;4.07;;
33760;SDS011;20084;47.912;19.044;2022-10-16T14:43:22;3.75;;;2.70;;
33760;SDS011;20084;47.912;19.044;2022-10-16T14:45:57;4.40;;;3.13;;
33760;SDS011;20084;47.912;19.044;2022-10-16T14:48:23;4.20;;;2.83;;
33760;SDS011;20084;47.912;19.044;2022-10-16T14:50:49;5.68;;;2.97;;
33760;SDS011;20084;47.912;19.044;2022-10-16T14:53:15;4.72;;;2.78;;
33760;SDS011;20084;47.912;19.044;2022-10-16T14:55:41;4.57;;;3.15;;
33760;SDS011;20084;47.912;19.044;2022-10-16T15:00:42;7.45;;;5.07;;
33760;SDS011;20084;47.912;19.044;2022-10-16T15:03:08;6.50;;;5.32;;
33760;SDS011;20084;47.912;19.044;2022-10-16T15:05:34;7.35;;;5.32;;
33760;SDS011;20084;47.912;19.044;2022-10-16T15:07:59;6.78;;;5.13;;
33760;SDS011;20084;47.912;19.044;2022-10-16T15:10:26;5.10;;;3.67;;
33760;SDS011;20084;47.912;19.044;2022-10-16T15:12:53;13.55;;;4.38;;
33760;SDS011;20084;47.912;19.044;2022-10-16T15:17:48;5.15;;;3.97;;
33760;SDS011;20084;47.912;19.044;2022-10-16T15:20:18;11.50;;;5.40;;
33760;SDS011;20084;47.912;19.044;2022-10-16T15:22:44;6.95;;;4.40;;
33760;SDS011;20084;47.912;19.044;2022-10-16T15:25:55;5.43;;;3.83;;
33760;SDS011;20084;47.912;19.044;2022-10-16T15:28:01;4.20;;;3.05;;
33760;SDS011;20084;47.912;19.044;2022-10-16T15:30:27;6.38;;;2.85;;
33760;SDS011;20084;47.912;19.044;2022-10-16T15:32:53;5.78;;;3.30;;
33760;SDS011;20084;47.912;19.044;2022-10-16T15:35:19;3.42;;;2.70;;
33760;SDS011;20084;47.912;19.044;2022-10-16T15:37:46;5.50;;;3.60;;
33760;SDS011;20084;47.912;19.044;2022-10-16T15:40:13;6.20;;;3.33;;
33760;SDS011;20084;47.912;19.044;2022-10-16T15:42:39;4.05;;;3.08;;
33760;SDS011;20084;47.912;19.044;2022-10-16T15:45:05;6.50;;;3.50;;
33760;SDS011;20084;47.912;19.044;2022-10-16T15:47:31;4.68;;;3.10;;
33760;SDS011;20084;47.912;19.044;2022-10-16T15:49:57;6.82;;;3.40;;
33760;SDS011;20084;47.912;19.044;2022-10-16T15:52:23;4.45;;;3.70;;
33760;SDS011;20084;47.912;19.044;2022-10-16T15:54:48;4.82;;;3.78;;
33760;SDS011;20084;47.912;19.044;2022-10-16T15:57:14;4.88;;;3.60;;
33760;SDS011;20084;47.912;19.044;2022-10-16T15:59:40;6.22;;;3.45;;
33760;SDS011;20084;47.912;19.044;2022-10-16T16:02:05;6.15;;;3.78;;
33760;SDS011;20084;47.912;19.044;2022-10-16T16:04:31;6.50;;;3.30;;
33760;SDS011;20084;47.912;19.044;2022-10-16T16:06:57;6.68;;;3.78;;
33760;SDS011;20084;47.912;19.044;2022-10-16T16:09:22;6.57;;;3.75;;
33760;SDS011;20084;47.912;19.044;2022-10-16T16:11:48;5.93;;;3.75;;
33760;SDS011;20084;47.912;19.044;2022-10-16T16:14:16;3.45;;;3.00;;
33760;SDS011;20084;47.912;19.044;2022-10-16T16:16:41;21.67;;;4.50;;
33760;SDS011;20084;47.912;19.044;2022-10-16T16:19:07;8.30;;;3.63;;
33760;SDS011;20084;47.912;19.044;2022-10-16T16:21:34;6.32;;;3.92;;
33760;SDS011;20084;47.912;19.044;2022-10-16T16:23:59;4.72;;;3.17;;
33760;SDS011;20084;47.912;19.044;2022-10-16T16:26:26;6.50;;;4.55;;
33760;SDS011;20084;47.912;19.044;2022-10-16T16:28:57;7.55;;;4.90;;
33760;SDS011;20084;47.912;19.044;2022-10-16T16:31:24;5.75;;;3.47;;
33760;SDS011;20084;47.912;19.044;2022-10-16T16:33:50;6.32;;;4.93;;
33760;SDS011;20084;47.912;19.044;2022-10-16T16:36:17;8.88;;;4.10;;
33760;SDS011;20084;47.912;19.044;2022-10-16T16:38:43;9.40;;;3.58;;
33760;SDS011;20084;47.912;19.044;2022-10-16T16:41:19;8.73;;;3.75;;
33760;SDS011;20084;47.912;19.044;2022-10-16T16:43:46;5.38;;;3.83;;
33760;SDS011;20084;47.912;19.044;2022-10-16T16:46:13;5.93;;;3.60;;
33760;SDS011;20084;47.912;19.044;2022-10-16T16:48:39;5.63;;;3.70;;
33760;SDS011;20084;47.912;19.044;2022-10-16T16:51:06;8.00;;;4.28;;
33760;SDS011;20084;47.912;19.044;2022-10-16T16:53:34;4.88;;;3.55;;
33760;SDS011;20084;47.912;19.044;2022-10-16T16:56:04;5.82;;;3.50;;
33760;SDS011;20084;47.912;19.044;2022-10-16T16:58:30;5.50;;;3.58;;
33760;SDS011;20084;47.912;19.044;2022-10-16T17:00:57;3.95;;;3.55;;
33760;SDS011;20084;47.912;19.044;2022-10-16T17:03:30;4.45;;;3.80;;
33760;SDS011;20084;47.912;19.044;2022-10-16T17:06:01;4.50;;;3.65;;
33760;SDS011;20084;47.912;19.044;2022-10-16T17:08:32;4.68;;;3.58;;
33760;SDS011;20084;47.912;19.044;2022-10-16T17:11:00;9.05;;;4.38;;
33760;SDS011;20084;47.912;19.044;2022-10-16T17:13:29;5.40;;;3.88;;
33760;SDS011;20084;47.912;19.044;2022-10-16T17:15:59;8.38;;;4.00;;